Time;durP1;ratioP1;P1;durP2;ratioP2;P2;SDS_P1;SDS_P2;PMS_P1;PMS_P2;Temp;Humidity;BMP_temperature;BMP_pressure;BME280_temperature;BME280_humidity;BME280_pressure;Samples;Min_cycle;Max_cycle;Signal;HPM_P1;HPM_P2
2023/05/25 00:01:36;;;;;;;11.50;5.68;;;9.00;99.90;;;;;;7375405;19;20033;-74
2023/05/25 00:04:02;;;;;;;14.68;6.55;;;9.00;99.90;;;;;;7376801;19;20776;-74
2023/05/25 00:06:30;;;;;;;12.68;6.68;;;9.00;99.90;;;;;;7372787;19;20022;-74
2023/05/25 00:08:56;;;;;;;11.93;6.03;;;9.00;99.90;;;;;;7376302;19;20486;-74
2023/05/25 00:11:23;;;;;;;13.80;6.97;;;8.90;99.90;;;;;;7375271;19;20039;-74
2023/05/25 00:13:51;;;;;;;13.43;6.78;;;8.90;99.90;;;;;;7375745;19;20134;-75
2023/05/25 00:16:17;;;;;;;11.57;7.25;;;8.90;99.90;;;;;;7377615;19;20035;-74
2023/05/25 00:18:44;;;;;;;14.23;7.28;;;8.90;99.90;;;;;;7377620;19;20042;-74
2023/05/25 00:21:10;;;;;;;11.50;7.03;;;8.90;99.90;;;;;;7375462;19;20015;-73
2023/05/25 00:23:36;;;;;;;18.70;8.00;;;8.90;99.90;;;;;;7373964;19;20881;-73
2023/05/25 00:26:03;;;;;;;17.15;7.63;;;8.80;99.90;;;;;;7375321;19;20026;-74
2023/05/25 00:28:29;;;;;;;17.63;7.38;;;8.80;99.90;;;;;;7373442;19;20046;-73
2023/05/25 00:30:56;;;;;;;13.55;8.48;;;8.80;99.90;;;;;;7373999;19;20027;-73
2023/05/25 00:33:22;;;;;;;16.30;7.72;;;8.80;99.90;;;;;;7373928;19;20501;-73
2023/05/25 00:35:48;;;;;;;17.42;8.60;;;8.80;99.90;;;;;;7374893;19;20042;-73
2023/05/25 00:38:19;;;;;;;11.95;7.88;;;8.80;99.90;;;;;;7373134;19;20019;-74
2023/05/25 00:40:45;;;;;;;13.45;7.22;;;8.80;99.90;;;;;;7374337;19;20022;-74
2023/05/25 00:43:12;;;;;;;19.42;9.00;;;8.80;99.90;;;;;;7372539;19;20019;-74
2023/05/25 00:45:39;;;;;;;13.30;7.40;;;8.80;99.90;;;;;;7373279;19;20023;-74
2023/05/25 00:48:05;;;;;;;16.25;8.70;;;8.70;99.90;;;;;;7373230;19;20040;-62
2023/05/25 00:50:44;;;;;;;19.02;9.02;;;8.70;99.90;;;;;;7373042;19;20039;-61
2023/05/25 00:53:12;;;;;;;16.23;8.38;;;8.70;99.90;;;;;;7371064;19;20026;-62
2023/05/25 00:55:44;;;;;;;19.13;9.38;;;8.60;99.90;;;;;;7373146;19;20019;-62
2023/05/25 00:58:13;;;;;;;15.80;8.68;;;8.60;99.90;;;;;;7372980;19;20018;-62
2023/05/25 01:00:41;;;;;;;16.30;8.70;;;8.60;99.90;;;;;;7373634;19;20028;-61
2023/05/25 01:03:16;;;;;;;14.68;7.28;;;8.60;99.90;;;;;;7375149;19;20602;-61
2023/05/25 01:05:46;;;;;;;15.18;7.97;;;8.50;99.90;;;;;;7371331;19;20058;-61
2023/05/25 01:08:15;;;;;;;14.15;7.50;;;8.60;99.90;;;;;;7370027;19;20393;-61
2023/05/25 01:10:43;;;;;;;16.65;7.57;;;8.50;99.90;;;;;;7374605;19;20037;-62
2023/05/25 01:13:12;;;;;;;17.70;7.55;;;8.40;99.90;;;;;;7365905;19;20072;-62
2023/05/25 01:15:38;;;;;;;13.13;7.38;;;8.40;99.90;;;;;;7370193;19;20094;-61
2023/05/25 01:18:05;;;;;;;11.85;6.93;;;8.30;99.90;;;;;;7373809;19;20026;-61
2023/05/25 01:20:31;;;;;;;13.02;7.10;;;8.20;99.90;;;;;;7372641;19;20026;-61
2023/05/25 01:23:12;;;;;;;14.57;7.28;;;8.20;99.90;;;;;;7372776;19;20014;-74
2023/05/25 01:25:44;;;;;;;16.55;8.18;;;8.20;99.90;;;;;;7377005;19;20026;-74
2023/05/25 01:28:24;;;;;;;13.57;7.13;;;8.20;99.90;;;;;;7376348;19;20022;-74
2023/05/25 01:30:51;;;;;;;14.57;9.05;;;8.10;99.90;;;;;;7380396;19;20026;-61
2023/05/25 01:33:20;;;;;;;15.75;7.40;;;8.10;99.90;;;;;;7378344;19;20052;-74
2023/05/25 01:35:47;;;;;;;11.50;6.10;;;8.00;99.90;;;;;;7381082;19;20018;-73
2023/05/25 01:38:14;;;;;;;15.32;7.15;;;7.90;99.90;;;;;;7379774;19;20078;-74
2023/05/25 01:40:40;;;;;;;15.02;7.30;;;7.90;99.90;;;;;;7380982;19;20057;-72
2023/05/25 01:43:06;;;;;;;12.20;7.82;;;7.90;99.90;;;;;;7379979;19;20043;-73
2023/05/25 01:45:33;;;;;;;13.68;7.70;;;7.80;99.90;;;;;;7377679;19;20018;-73
2023/05/25 01:48:29;;;;;;;19.70;7.82;;;7.80;99.90;;;;;;7380572;19;20032;-73
2023/05/25 01:51:09;;;;;;;9.63;7.28;;;7.80;99.90;;;;;;7382219;19;20088;-73
2023/05/25 01:53:41;;;;;;;16.33;7.22;;;7.80;99.90;;;;;;7379521;19;20022;-61
2023/05/25 01:56:10;;;;;;;12.23;8.25;;;7.90;99.90;;;;;;7380633;19;20481;-61
2023/05/25 01:58:42;;;;;;;13.00;8.43;;;7.80;99.90;;;;;;7378833;19;20061;-60
2023/05/25 02:01:11;;;;;;;19.40;8.27;;;7.90;99.90;;;;;;7377914;19;20014;-73
2023/05/25 02:03:40;;;;;;;18.45;9.35;;;7.90;99.90;;;;;;7372032;19;20594;-73
2023/05/25 02:06:07;;;;;;;18.30;10.00;;;7.90;99.90;;;;;;7378035;19;20371;-73
2023/05/25 02:08:34;;;;;;;17.50;10.80;;;7.90;99.90;;;;;;7379201;19;20024;-75
2023/05/25 02:11:02;;;;;;;20.55;10.70;;;7.90;99.90;;;;;;7378889;19;20025;-75
2023/05/25 02:13:28;;;;;;;18.30;10.75;;;7.90;99.90;;;;;;7376055;19;20734;-74
2023/05/25 02:15:55;;;;;;;18.33;10.13;;;8.00;99.90;;;;;;7378166;19;20069;-74
2023/05/25 02:18:21;;;;;;;14.75;9.50;;;7.90;99.90;;;;;;7380262;19;20030;-73
2023/05/25 02:20:48;;;;;;;13.40;9.65;;;7.90;99.90;;;;;;7379865;19;21186;-73
2023/05/25 02:23:17;;;;;;;19.05;9.55;;;7.90;99.90;;;;;;7378622;19;20507;-72
2023/05/25 02:25:43;;;;;;;16.38;9.43;;;8.00;99.90;;;;;;7378900;19;20034;-73
2023/05/25 02:28:13;;;;;;;17.58;10.18;;;7.90;99.90;;;;;;7374751;19;20047;-73
2023/05/25 02:30:40;;;;;;;18.13;10.65;;;7.90;99.90;;;;;;7379321;19;20826;-60
2023/05/25 02:33:06;;;;;;;19.48;10.30;;;8.00;99.90;;;;;;7379757;19;20018;-73
2023/05/25 02:35:33;;;;;;;19.95;11.60;;;8.00;99.90;;;;;;7374749;19;20349;-73
2023/05/25 02:37:59;;;;;;;19.88;11.27;;;8.00;99.90;;;;;;7377292;19;20022;-73
2023/05/25 02:40:25;;;;;;;22.52;11.55;;;8.00;99.90;;;;;;7379113;19;20026;-73
2023/05/25 02:42:52;;;;;;;23.88;11.38;;;8.00;99.90;;;;;;7377725;19;20024;-73
2023/05/25 02:45:19;;;;;;;21.50;12.02;;;8.00;99.90;;;;;;7376642;19;20021;-73
2023/05/25 02:47:45;;;;;;;19.27;11.27;;;8.00;99.90;;;;;;7377607;19;20019;-73
2023/05/25 02:50:12;;;;;;;18.58;11.20;;;8.00;99.90;;;;;;7379268;19;20037;-73
2023/05/25 02:52:43;;;;;;;20.83;9.83;;;8.00;99.90;;;;;;7380706;19;20483;-61
2023/05/25 02:55:12;;;;;;;18.30;11.20;;;8.00;99.90;;;;;;7379468;19;20341;-61
2023/05/25 02:57:39;;;;;;;26.15;11.27;;;7.90;99.90;;;;;;7378545;19;20397;-61
2023/05/25 03:00:11;;;;;;;21.23;10.50;;;7.90;99.90;;;;;;7377518;19;20019;-61
2023/05/25 03:02:38;;;;;;;18.90;11.35;;;7.90;99.90;;;;;;7377862;19;20023;-61
2023/05/25 03:05:05;;;;;;;20.17;10.00;;;7.90;99.90;;;;;;7377122;19;20026;-61
2023/05/25 03:07:33;;;;;;;16.92;9.30;;;7.90;99.90;;;;;;7377713;19;20015;-61
2023/05/25 03:09:59;;;;;;;17.10;9.60;;;7.90;99.90;;;;;;7376919;19;20073;-61
2023/05/25 03:12:25;;;;;;;17.45;9.60;;;7.90;99.90;;;;;;7378700;19;20690;-61
2023/05/25 03:14:52;;;;;;;15.65;9.65;;;7.80;99.90;;;;;;7376524;19;20018;-61
2023/05/25 03:17:19;;;;;;;21.13;10.85;;;7.80;99.90;;;;;;7374539;19;20018;-61
2023/05/25 03:19:49;;;;;;;21.17;10.32;;;7.80;99.90;;;;;;7376916;19;20026;-60
2023/05/25 03:22:16;;;;;;;19.10;10.05;;;7.80;99.90;;;;;;7377117;19;20018;-61
2023/05/25 03:24:42;;;;;;;18.77;10.32;;;7.80;99.90;;;;;;7373650;19;20765;-61
2023/05/25 03:27:09;;;;;;;15.80;9.65;;;7.80;99.90;;;;;;7376275;19;20478;-61
2023/05/25 03:29:35;;;;;;;15.30;9.90;;;7.70;99.90;;;;;;7376299;19;20037;-73
2023/05/25 03:32:08;;;;;;;17.52;9.82;;;7.70;99.90;;;;;;7375504;19;20398;-60
2023/05/25 03:34:36;;;;;;;20.73;11.50;;;7.70;99.90;;;;;;7376994;19;20803;-61
2023/05/25 03:37:03;;;;;;;19.42;10.60;;;7.70;99.90;;;;;;7374569;19;20022;-61
2023/05/25 03:39:30;;;;;;;17.13;10.52;;;7.70;99.90;;;;;;7376659;19;20764;-61
2023/05/25 03:41:57;;;;;;;16.00;10.32;;;7.70;99.90;;;;;;7376880;19;20018;-71
2023/05/25 03:44:24;;;;;;;23.88;10.27;;;7.80;99.90;;;;;;7378248;19;20018;-72
2023/05/25 03:46:50;;;;;;;19.23;11.18;;;7.80;99.90;;;;;;7374861;19;20782;-72
2023/05/25 03:49:16;;;;;;;26.00;12.63;;;7.80;99.90;;;;;;7377422;19;20014;-72
2023/05/25 03:51:43;;;;;;;27.42;11.98;;;7.90;99.90;;;;;;7377740;19;20014;-73
2023/05/25 03:54:10;;;;;;;16.58;10.82;;;7.90;99.90;;;;;;7376870;19;20015;-72
2023/05/25 03:56:36;;;;;;;17.92;11.68;;;7.90;99.90;;;;;;7375621;19;20030;-73
2023/05/25 03:59:05;;;;;;;20.92;11.00;;;7.90;99.90;;;;;;7377442;19;20599;-72
2023/05/25 04:01:31;;;;;;;22.55;12.05;;;7.90;99.90;;;;;;7375801;19;20486;-61
2023/05/25 04:03:58;;;;;;;20.33;11.50;;;7.90;99.90;;;;;;7376778;19;20022;-60
2023/05/25 04:06:24;;;;;;;20.00;11.45;;;8.00;99.90;;;;;;7372821;19;20018;-60
2023/05/25 04:08:51;;;;;;;22.10;11.63;;;8.00;99.90;;;;;;7372958;19;20026;-61
2023/05/25 04:11:18;;;;;;;25.05;12.95;;;8.00;99.90;;;;;;7374667;19;20019;-61
2023/05/25 04:13:46;;;;;;;21.85;12.15;;;8.10;99.90;;;;;;7376398;19;20026;-60
2023/05/25 04:16:13;;;;;;;19.98;11.15;;;8.10;99.90;;;;;;7373880;19;20442;-61
2023/05/25 04:18:40;;;;;;;23.95;12.13;;;8.20;99.90;;;;;;7375823;19;20577;-60
2023/05/25 04:21:06;;;;;;;22.27;12.05;;;8.20;99.90;;;;;;7372506;19;20101;-60
2023/05/25 04:23:35;;;;;;;24.02;13.00;;;8.30;99.90;;;;;;7375837;19;20846;-59
2023/05/25 04:26:02;;;;;;;19.60;12.48;;;8.30;99.90;;;;;;7373574;19;20019;-60
2023/05/25 04:28:31;;;;;;;17.60;11.77;;;8.40;99.90;;;;;;7374972;19;20019;-60
2023/05/25 04:31:12;;;;;;;21.08;12.05;;;8.40;99.90;;;;;;7377152;19;20370;-60
2023/05/25 04:33:46;;;;;;;21.08;11.50;;;8.50;99.90;;;;;;7376757;19;20478;-60
2023/05/25 04:36:31;;;;;;;19.42;11.50;;;8.50;99.90;;;;;;7374169;19;20546;-60
2023/05/25 04:39:02;;;;;;;20.83;11.95;;;8.60;99.90;;;;;;7373578;19;20019;-60
2023/05/25 04:41:29;;;;;;;24.80;11.15;;;8.70;99.90;;;;;;7373928;19;20025;-60
2023/05/25 04:43:59;;;;;;;19.05;11.50;;;8.80;99.90;;;;;;7373031;19;20050;-59
2023/05/25 04:46:25;;;;;;;19.55;10.93;;;8.90;99.90;;;;;;7373758;19;20033;-60
2023/05/25 04:48:51;;;;;;;21.65;12.30;;;8.90;99.90;;;;;;7372796;19;20462;-71
2023/05/25 04:51:17;;;;;;;26.33;12.45;;;9.00;99.90;;;;;;7373113;19;20087;-72
2023/05/25 04:53:44;;;;;;;21.00;11.30;;;9.10;99.90;;;;;;7371289;19;20015;-60
2023/05/25 04:56:10;;;;;;;20.92;11.52;;;9.20;99.90;;;;;;7370873;19;20014;-60
2023/05/25 04:58:37;;;;;;;25.88;12.40;;;9.30;99.90;;;;;;7372574;19;20050;-60
2023/05/25 05:01:04;;;;;;;21.30;11.77;;;9.40;99.90;;;;;;7377267;19;20968;-60
2023/05/25 05:03:31;;;;;;;22.48;11.57;;;9.50;99.90;;;;;;7380448;19;20011;-60
2023/05/25 05:05:58;;;;;;;23.05;12.88;;;9.70;99.90;;;;;;7380017;19;20022;-60
2023/05/25 05:08:28;;;;;;;24.67;11.45;;;9.90;99.90;;;;;;7374186;19;20107;-60
2023/05/25 05:10:54;;;;;;;20.35;10.38;;;10.00;99.90;;;;;;7380128;19;20026;-60
2023/05/25 05:13:21;;;;;;;21.45;10.43;;;10.30;99.90;;;;;;7378090;19;20664;-60
2023/05/25 05:15:47;;;;;;;21.85;10.48;;;10.50;99.90;;;;;;7380048;19;20014;-60
2023/05/25 05:18:14;;;;;;;18.85;10.10;;;10.80;99.90;;;;;;7377298;19;20026;-60
2023/05/25 05:20:40;;;;;;;21.23;9.40;;;11.00;99.90;;;;;;7379723;19;20782;-61
2023/05/25 05:23:07;;;;;;;20.17;8.48;;;11.40;99.90;;;;;;7378578;19;20502;-62
2023/05/25 05:25:33;;;;;;;13.82;7.95;;;11.60;99.90;;;;;;7379085;19;20022;-70
2023/05/25 05:28:00;;;;;;;17.35;8.18;;;11.90;99.90;;;;;;7378594;19;20023;-71
2023/05/25 05:30:33;;;;;;;14.98;7.43;;;12.20;99.90;;;;;;7381340;19;20021;-70
2023/05/25 05:33:00;;;;;;;17.58;8.25;;;12.40;99.90;;;;;;7379828;19;20986;-71
2023/05/25 05:35:30;;;;;;;15.97;7.33;;;12.60;99.90;;;;;;7378072;19;20145;-71
2023/05/25 05:38:06;;;;;;;15.93;7.28;;;12.70;99.90;;;;;;7374421;19;20670;-60
2023/05/25 05:40:32;;;;;;;13.85;7.72;;;13.10;99.90;;;;;;7379795;19;20474;-60
2023/05/25 05:42:59;;;;;;;15.27;7.25;;;13.30;99.90;;;;;;7380210;19;20029;-70
2023/05/25 05:45:25;;;;;;;18.42;7.40;;;13.40;99.90;;;;;;7379662;19;20089;-71
2023/05/25 05:47:51;;;;;;;13.88;6.80;;;13.70;99.90;;;;;;7379994;19;20440;-71
2023/05/25 05:50:18;;;;;;;14.70;6.50;;;13.80;99.90;;;;;;7379545;19;20088;-71
2023/05/25 05:52:45;;;;;;;13.88;6.80;;;13.80;99.90;;;;;;7379325;19;20056;-71
2023/05/25 05:55:11;;;;;;;15.10;7.13;;;14.00;99.90;;;;;;7373561;19;20030;-70
2023/05/25 05:57:39;;;;;;;13.38;6.70;;;14.10;99.90;;;;;;7377264;19;20022;-71
2023/05/25 06:00:07;;;;;;;16.83;6.78;;;14.30;99.90;;;;;;7375181;19;20018;-71
2023/05/25 06:02:48;;;;;;;14.93;6.00;;;14.40;99.90;;;;;;7376597;19;20023;-60
2023/05/25 06:05:19;;;;;;;14.05;6.65;;;14.60;99.90;;;;;;7375339;19;20112;-60
2023/05/25 06:07:48;;;;;;;14.95;6.45;;;14.60;99.90;;;;;;7373209;19;20052;-61
2023/05/25 06:10:15;;;;;;;14.13;5.85;;;14.70;99.90;;;;;;7374933;19;20585;-60
2023/05/25 06:12:43;;;;;;;13.00;6.07;;;14.70;99.90;;;;;;7376037;19;20597;-61
2023/05/25 06:15:10;;;;;;;12.57;6.10;;;15.00;99.90;;;;;;7376208;19;20025;-60
2023/05/25 06:17:37;;;;;;;14.07;6.18;;;15.00;99.90;;;;;;7377002;19;20018;-60
2023/05/25 06:20:05;;;;;;;13.35;5.93;;;15.10;99.90;;;;;;7374456;19;20022;-60
2023/05/25 06:22:32;;;;;;;14.02;6.20;;;15.30;99.90;;;;;;7374322;19;20042;-71
2023/05/25 06:24:58;;;;;;;13.48;6.72;;;15.30;99.90;;;;;;7377098;19;20426;-64
2023/05/25 06:27:27;;;;;;;14.20;6.55;;;15.30;99.90;;;;;;7369785;19;20014;-61
2023/05/25 06:29:53;;;;;;;17.48;9.10;;;15.00;99.90;;;;;;7370812;19;20029;-62
2023/05/25 06:32:19;;;;;;;16.08;7.45;;;14.80;99.90;;;;;;7374443;19;20056;-72
2023/05/25 06:34:46;;;;;;;19.50;10.23;;;14.80;99.90;;;;;;7383101;19;20026;-72
2023/05/25 06:37:14;;;;;;;21.88;8.35;;;14.60;99.90;;;;;;7377239;19;20100;-62
2023/05/25 06:39:41;;;;;;;14.32;6.78;;;14.40;99.90;;;;;;7377934;19;21244;-62
2023/05/25 06:42:09;;;;;;;15.93;8.85;;;14.40;99.90;;;;;;7374695;19;20498;-63
2023/05/25 06:44:35;;;;;;;10.80;6.20;;;14.70;99.90;;;;;;7377071;19;20101;-62
2023/05/25 06:47:01;;;;;;;14.02;7.57;;;14.80;99.90;;;;;;7380209;19;20114;-72
2023/05/25 06:49:28;;;;;;;14.60;7.45;;;14.80;99.90;;;;;;7376822;19;20025;-62
2023/05/25 06:51:54;;;;;;;13.43;5.53;;;14.90;99.90;;;;;;7375711;19;20694;-68
2023/05/25 06:54:21;;;;;;;14.98;5.82;;;15.00;99.90;;;;;;7372776;19;21276;-62
2023/05/25 06:56:47;;;;;;;18.52;10.93;;;15.00;99.90;;;;;;7372732;19;20026;-62
2023/05/25 06:59:13;;;;;;;18.85;12.63;;;15.00;99.90;;;;;;7375314;19;20027;-73
2023/05/25 07:01:39;;;;;;;14.75;9.15;;;15.10;99.90;;;;;;7382179;19;20027;-73
2023/05/25 07:04:06;;;;;;;22.75;15.48;;;15.20;99.90;;;;;;7379935;19;20625;-62
2023/05/25 07:06:32;;;;;;;13.10;5.60;;;15.10;99.90;;;;;;7377048;19;20478;-62
2023/05/25 07:08:59;;;;;;;14.23;6.78;;;15.10;99.90;;;;;;7374516;19;20014;-73
2023/05/25 07:11:26;;;;;;;15.85;8.07;;;15.00;99.90;;;;;;7376964;19;20057;-62
2023/05/25 07:13:53;;;;;;;18.85;11.88;;;14.90;99.90;;;;;;7378061;19;20593;-62
2023/05/25 07:16:19;;;;;;;14.63;7.53;;;15.00;99.90;;;;;;7373457;19;20018;-72
2023/05/25 07:18:46;;;;;;;19.02;9.20;;;14.90;99.90;;;;;;7377441;19;20029;-73
2023/05/25 07:21:12;;;;;;;16.48;5.70;;;15.00;99.90;;;;;;7373441;19;20032;-62
2023/05/25 07:23:39;;;;;;;18.67;8.25;;;15.00;99.90;;;;;;7375442;19;20492;-62
2023/05/25 07:26:06;;;;;;;18.45;6.72;;;15.20;99.90;;;;;;7374768;19;20022;-62
2023/05/25 07:28:33;;;;;;;23.33;13.85;;;15.10;99.90;;;;;;7372630;19;20033;-63
2023/05/25 07:31:00;;;;;;;17.15;6.95;;;15.30;99.90;;;;;;7376141;19;20018;-70
2023/05/25 07:33:26;;;;;;;10.65;4.45;;;15.40;99.90;;;;;;7374085;19;20018;-62
2023/05/25 07:35:52;;;;;;;19.10;9.63;;;15.60;99.90;;;;;;7371528;19;20025;-70
2023/05/25 07:38:19;;;;;;;14.13;6.03;;;15.80;99.90;;;;;;7368205;19;20039;-63
2023/05/25 07:40:47;;;;;;;23.25;12.00;;;16.10;99.90;;;;;;7370969;19;20363;-70
2023/05/25 07:43:14;;;;;;;13.68;5.15;;;16.50;99.90;;;;;;7372198;19;20058;-71
2023/05/25 07:45:40;;;;;;;12.30;5.75;;;16.70;99.90;;;;;;7375991;19;20077;-70
2023/05/25 07:48:08;;;;;;;18.17;7.72;;;17.00;99.90;;;;;;7372941;19;20018;-70
2023/05/25 07:50:34;;;;;;;19.52;10.48;;;16.80;99.90;;;;;;7372604;19;20014;-63
2023/05/25 07:53:00;;;;;;;17.88;8.25;;;16.70;99.90;;;;;;7373752;19;20026;-63
2023/05/25 07:55:27;;;;;;;14.60;5.07;;;16.60;99.90;;;;;;7369435;19;20015;-70
2023/05/25 07:57:53;;;;;;;17.02;6.53;;;16.40;99.90;;;;;;7371147;19;20865;-70
2023/05/25 08:00:20;;;;;;;16.48;6.53;;;16.50;99.90;;;;;;7367839;19;20019;-70
2023/05/25 08:02:46;;;;;;;16.27;4.70;;;16.50;99.90;;;;;;7370994;19;20406;-70
2023/05/25 08:05:12;;;;;;;16.00;6.22;;;16.60;99.90;;;;;;7370202;19;20022;-70
2023/05/25 08:07:39;;;;;;;19.60;9.18;;;16.80;99.90;;;;;;7372749;19;20022;-70
2023/05/25 08:10:07;;;;;;;13.75;4.85;;;16.90;99.90;;;;;;7370503;19;20513;-70
2023/05/25 08:12:33;;;;;;;16.67;8.68;;;17.00;99.90;;;;;;7376042;19;20019;-70
2023/05/25 08:14:59;;;;;;;17.23;6.15;;;16.90;99.90;;;;;;7377011;19;20022;-63
2023/05/25 08:17:26;;;;;;;17.52;6.47;;;16.80;99.90;;;;;;7374194;19;20022;-62
2023/05/25 08:19:54;;;;;;;18.45;5.22;;;16.80;99.90;;;;;;7372825;19;20022;-63
2023/05/25 08:22:21;;;;;;;15.88;5.03;;;17.00;99.90;;;;;;7372278;19;20105;-63
2023/05/25 08:24:47;;;;;;;13.45;5.00;;;16.90;99.90;;;;;;7373498;19;20153;-70
2023/05/25 08:27:13;;;;;;;17.05;6.43;;;16.90;99.90;;;;;;7374587;19;20571;-70
2023/05/25 08:29:40;;;;;;;15.40;5.30;;;16.70;99.90;;;;;;7373729;19;20617;-70
2023/05/25 08:32:06;;;;;;;20.02;5.20;;;16.50;99.90;;;;;;7380856;19;20092;-73
2023/05/25 08:34:33;;;;;;;16.88;4.82;;;16.60;99.90;;;;;;7382680;19;20077;-62
2023/05/25 08:36:59;;;;;;;14.45;5.57;;;16.70;99.90;;;;;;7381445;19;20018;-63
2023/05/25 08:39:26;;;;;;;17.02;4.70;;;16.90;99.90;;;;;;7377380;19;20029;-62
2023/05/25 08:41:52;;;;;;;17.23;6.72;;;17.10;99.90;;;;;;7380295;19;20103;-62
2023/05/25 08:44:19;;;;;;;16.45;7.13;;;16.70;99.90;;;;;;7381895;19;20018;-63
2023/05/25 08:46:50;;;;;;;20.02;6.03;;;16.70;99.90;;;;;;7381688;19;20033;-68
2023/05/25 08:49:23;;;;;;;21.27;7.88;;;16.50;99.90;;;;;;7379388;19;20022;-62
2023/05/25 08:51:52;;;;;;;18.08;7.35;;;16.40;99.90;;;;;;7382374;19;20018;-68
2023/05/25 08:54:30;;;;;;;23.08;7.85;;;16.50;99.90;;;;;;7381883;19;20014;-69
2023/05/25 08:57:10;;;;;;;16.95;6.50;;;16.50;99.90;;;;;;7383187;19;20011;-68
2023/05/25 08:59:55;;;;;;;20.90;9.15;;;16.70;99.90;;;;;;7382501;19;20035;-69
2023/05/25 09:02:29;;;;;;;23.23;9.43;;;16.70;99.90;;;;;;7381029;19;20014;-68
2023/05/25 09:04:56;;;;;;;17.95;7.20;;;16.50;99.90;;;;;;7380678;19;20047;-69
2023/05/25 09:07:24;;;;;;;23.92;7.53;;;16.70;99.90;;;;;;7378925;19;20011;-69
2023/05/25 09:09:54;;;;;;;18.98;5.07;;;17.40;99.90;;;;;;7379236;19;20375;-69
2023/05/25 09:12:22;;;;;;;23.58;8.55;;;18.10;99.90;;;;;;7380813;19;20023;-68
2023/05/25 09:14:52;;;;;;;24.73;12.02;;;17.90;99.90;;;;;;7374649;19;20021;-68
2023/05/25 09:17:19;;;;;;;19.60;6.07;;;17.70;99.90;;;;;;7379012;19;20014;-69
2023/05/25 09:19:46;;;;;;;28.23;9.05;;;17.30;99.90;;;;;;7378707;19;20022;-62
2023/05/25 09:22:13;;;;;;;24.77;9.27;;;17.50;99.90;;;;;;7380188;19;20055;-63
2023/05/25 09:24:40;;;;;;;22.42;12.68;;;18.40;99.90;;;;;;7378510;19;20758;-62
2023/05/25 09:27:10;;;;;;;27.95;16.48;;;19.20;99.90;;;;;;7374921;19;20023;-62
2023/05/25 09:29:36;;;;;;;18.08;6.72;;;19.10;92.60;;;;;;7381837;19;20015;-70
2023/05/25 09:32:06;;;;;;;22.08;7.68;;;19.00;97.20;;;;;;7379336;19;20029;-70
2023/05/25 09:34:35;;;;;;;28.13;13.48;;;18.70;82.70;;;;;;7380298;19;20509;-69
2023/05/25 09:37:12;;;;;;;17.48;5.85;;;18.70;91.80;;;;;;7378999;19;20038;-69
2023/05/25 09:39:42;;;;;;;25.08;14.77;;;19.20;92.60;;;;;;7376388;19;20044;-62
2023/05/25 09:42:09;;;;;;;20.95;7.55;;;18.60;85.20;;;;;;7372517;19;20022;-62
2023/05/25 09:44:41;;;;;;;23.48;7.65;;;18.30;93.50;;;;;;7369397;19;20029;-62
2023/05/25 09:47:08;;;;;;;23.10;7.97;;;18.00;96.80;;;;;;7376355;19;20074;-62
2023/05/25 09:49:35;;;;;;;28.63;12.43;;;18.00;95.10;;;;;;7372655;19;20022;-62
2023/05/25 09:52:01;;;;;;;29.38;12.65;;;18.40;94.10;;;;;;7371131;19;21453;-62
2023/05/25 09:54:28;;;;;;;24.17;14.63;;;19.10;94.10;;;;;;7361810;19;20853;-62
2023/05/25 09:56:55;;;;;;;27.45;12.15;;;19.20;81.80;;;;;;7372227;19;20050;-62
2023/05/25 09:59:22;;;;;;;19.60;6.72;;;18.70;78.10;;;;;;7374708;19;20064;-69
2023/05/25 10:01:52;;;;;;;18.70;8.18;;;19.30;91.30;;;;;;7374536;19;20038;-70
2023/05/25 10:04:18;;;;;;;21.25;9.43;;;20.40;80.60;;;;;;7375423;19;20544;-68
2023/05/25 10:06:48;;;;;;;20.23;10.75;;;20.60;70.60;;;;;;7370994;19;20379;-61
2023/05/25 10:09:18;;;;;;;21.20;11.15;;;20.90;65.90;;;;;;7371631;19;20018;-70
2023/05/25 10:11:44;;;;;;;21.05;7.25;;;20.10;62.10;;;;;;7376663;19;20022;-62
2023/05/25 10:14:16;;;;;;;22.70;9.15;;;19.60;63.90;;;;;;7373645;19;20050;-63
2023/05/25 10:16:47;;;;;;;34.15;18.00;;;19.30;65.30;;;;;;7374516;19;20033;-63
2023/05/25 10:19:40;;;;;;;24.23;6.15;;;19.40;67.20;;;;;;7369464;19;20022;-70
2023/05/25 10:22:22;;;;;;;23.63;8.80;;;19.20;66.20;;;;;;7371985;19;20501;-71
2023/05/25 10:25:07;;;;;;;21.52;12.38;;;19.20;69.10;;;;;;7371276;19;20017;-71
2023/05/25 10:27:40;;;;;;;24.45;11.10;;;18.80;66.00;;;;;;7372039;19;20018;-71
2023/05/25 10:30:08;;;;;;;20.50;7.75;;;19.00;67.90;;;;;;7374714;19;20025;-70
2023/05/25 10:32:37;;;;;;;25.60;14.13;;;19.20;69.00;;;;;;7371694;19;20022;-71
2023/05/25 10:35:05;;;;;;;24.42;8.27;;;20.00;68.00;;;;;;7375424;19;20379;-71
2023/05/25 10:37:33;;;;;;;25.13;13.18;;;20.10;67.00;;;;;;7379594;19;20014;-71
2023/05/25 10:40:01;;;;;;;19.75;6.68;;;20.10;63.40;;;;;;7380177;19;20477;-71
2023/05/25 10:42:28;;;;;;;22.00;10.25;;;20.60;64.60;;;;;;7376667;19;20104;-71
2023/05/25 10:44:55;;;;;;;29.98;17.35;;;20.30;62.80;;;;;;7376557;19;20014;-71
2023/05/25 10:47:22;;;;;;;20.02;5.60;;;20.90;62.80;;;;;;7378063;19;20053;-68
2023/05/25 10:49:57;;;;;;;22.95;9.45;;;21.10;60.20;;;;;;7379935;19;20532;-69
2023/05/25 10:52:28;;;;;;;18.80;7.45;;;21.30;59.60;;;;;;7377541;19;20018;-69
2023/05/25 10:55:00;;;;;;;18.47;8.13;;;20.70;58.10;;;;;;7378516;19;20037;-61
2023/05/25 10:57:27;;;;;;;19.80;9.48;;;21.60;57.10;;;;;;7374157;19;20014;-61
2023/05/25 11:00:04;;;;;;;14.77;5.10;;;21.90;57.60;;;;;;7378372;19;20019;-61
2023/05/25 11:02:54;;;;;;;16.88;5.40;;;21.80;55.60;;;;;;7375402;19;20023;-60
2023/05/25 11:05:30;;;;;;;21.55;7.10;;;21.40;54.40;;;;;;7374058;19;20042;-60
2023/05/25 11:07:58;;;;;;;15.90;7.40;;;22.10;57.00;;;;;;7374819;19;20443;-61
2023/05/25 11:10:49;;;;;;;17.85;4.95;;;22.10;56.10;;;;;;7375757;19;20022;-61
2023/05/25 11:13:30;;;;;;;21.17;10.15;;;22.00;56.30;;;;;;7376765;19;20022;-61
2023/05/25 11:16:34;;;;;;;17.73;7.93;;;21.60;55.60;;;;;;7373178;19;20045;-61
2023/05/25 11:19:01;;;;;;;15.30;4.68;;;21.40;54.50;;;;;;7374315;19;20505;-61
2023/05/25 11:21:30;;;;;;;19.58;7.82;;;21.60;55.00;;;;;;7375012;19;20473;-62
2023/05/25 11:24:13;;;;;;;20.45;8.63;;;22.10;55.10;;;;;;7373292;19;20679;-62
2023/05/25 11:26:56;;;;;;;15.20;6.68;;;22.40;52.80;;;;;;7372271;19;20577;-62
2023/05/25 11:29:24;;;;;;;18.27;5.90;;;22.70;52.60;;;;;;7368947;19;20018;-61
2023/05/25 11:31:53;;;;;;;18.13;6.28;;;22.20;53.90;;;;;;7376470;19;20026;-70
2023/05/25 11:34:24;;;;;;;16.65;5.95;;;22.00;53.70;;;;;;7372709;19;20028;-70
2023/05/25 11:36:56;;;;;;;16.27;5.60;;;22.40;53.30;;;;;;7376201;19;20015;-70
2023/05/25 11:39:23;;;;;;;15.20;5.35;;;22.30;53.40;;;;;;7371745;19;20022;-61
2023/05/25 11:41:54;;;;;;;20.70;6.60;;;22.30;52.20;;;;;;7374441;19;20018;-61
2023/05/25 11:44:32;;;;;;;17.15;6.80;;;22.40;50.60;;;;;;7373026;19;20022;-60
2023/05/25 11:47:12;;;;;;;19.52;6.15;;;22.70;51.40;;;;;;7378230;19;20053;-61
2023/05/25 11:49:40;;;;;;;19.35;6.95;;;23.00;51.40;;;;;;7370722;19;20050;-61
2023/05/25 11:52:07;;;;;;;15.40;4.55;;;23.20;49.80;;;;;;7376254;19;20074;-61
2023/05/25 11:54:35;;;;;;;16.05;6.55;;;23.30;49.50;;;;;;7370361;19;20056;-62
2023/05/25 11:57:01;;;;;;;16.52;5.45;;;23.20;49.60;;;;;;7378247;19;20066;-61
2023/05/25 11:59:29;;;;;;;16.05;5.13;;;23.30;48.80;;;;;;7372947;19;20018;-61
2023/05/25 12:02:03;;;;;;;14.60;5.60;;;23.20;49.90;;;;;;7372385;19;20026;-61
2023/05/25 12:04:31;;;;;;;12.63;4.93;;;22.30;50.50;;;;;;7369563;19;20037;-62
2023/05/25 12:07:02;;;;;;;24.77;11.82;;;21.90;51.00;;;;;;7370592;19;20025;-69
2023/05/25 12:09:28;;;;;;;25.73;17.40;;;22.90;51.10;;;;;;7372713;19;20845;-70
2023/05/25 12:11:55;;;;;;;29.42;19.73;;;22.90;50.80;;;;;;7373106;19;20371;-67
2023/05/25 12:14:22;;;;;;;25.45;13.88;;;23.10;51.00;;;;;;7376986;19;20019;-65
2023/05/25 12:16:51;;;;;;;28.75;15.27;;;22.80;50.80;;;;;;7374877;19;20015;-66
2023/05/25 12:19:18;;;;;;;25.13;10.82;;;22.10;51.50;;;;;;7373219;19;20380;-67
2023/05/25 12:21:44;;;;;;;18.02;6.80;;;22.60;51.90;;;;;;7373875;19;20026;-71
2023/05/25 12:24:14;;;;;;;25.15;15.13;;;23.00;50.10;;;;;;7371078;19;20490;-64
2023/05/25 12:27:00;;;;;;;31.83;20.05;;;23.30;49.80;;;;;;7376802;19;20023;-66
2023/05/25 12:29:27;;;;;;;28.77;18.85;;;23.30;49.70;;;;;;7368373;19;20022;-65
2023/05/25 12:32:04;;;;;;;27.98;14.60;;;23.50;50.30;;;;;;7369500;19;20015;-70
2023/05/25 12:34:30;;;;;;;24.88;10.50;;;23.60;50.60;;;;;;7370576;19;20021;-68
2023/05/25 12:36:57;;;;;;;28.27;15.02;;;23.70;50.30;;;;;;7371778;19;20836;-66
2023/05/25 12:39:29;;;;;;;16.98;5.85;;;23.90;49.90;;;;;;7368276;19;20023;-65
2023/05/25 12:42:11;;;;;;;18.98;8.07;;;23.40;49.30;;;;;;7372771;19;20055;-64
2023/05/25 12:44:38;;;;;;;16.92;7.00;;;23.10;49.10;;;;;;7379222;19;20496;-65
2023/05/25 12:47:23;;;;;;;21.30;7.35;;;23.40;50.70;;;;;;7382286;19;20043;-65